Time;durP1;ratioP1;P1;durP2;ratioP2;P2;SDS_P1;SDS_P2;PMS_P1;PMS_P2;Temp;Humidity;BMP_temperature;BMP_pressure;BME280_temperature;BME280_humidity;BME280_pressure;Samples;Min_cycle;Max_cycle;Signal;HPM_P1;HPM_P2
2023/05/10 00:02:22;;;;;;;6.53;4.87;;;11.40;99.90;;;;;;5050737;28;20567;-51
2023/05/10 00:04:49;;;;;;;6.97;4.50;;;11.30;99.90;;;;;;5049468;28;20493;-51
2023/05/10 00:07:17;;;;;;;11.40;5.07;;;11.30;99.90;;;;;;5049880;28;20470;-50
2023/05/10 00:09:43;;;;;;;6.10;4.37;;;11.30;99.90;;;;;;5050135;28;20939;-50
2023/05/10 00:12:10;;;;;;;5.63;4.77;;;11.20;99.90;;;;;;5046071;28;20549;-51
2023/05/10 00:14:38;;;;;;;5.13;4.40;;;11.20;99.90;;;;;;5046478;28;20568;-50
2023/05/10 00:17:04;;;;;;;5.30;4.80;;;11.20;99.90;;;;;;5050846;28;20577;-50
2023/05/10 00:19:31;;;;;;;9.83;5.43;;;11.20;99.90;;;;;;5049947;28;20465;-51
2023/05/10 00:21:57;;;;;;;8.70;5.30;;;11.20;99.90;;;;;;5050097;28;21018;-51
2023/05/10 00:24:24;;;;;;;6.13;4.83;;;11.10;99.90;;;;;;5050654;28;20553;-51
2023/05/10 00:26:50;;;;;;;6.53;4.67;;;11.10;99.90;;;;;;5049446;28;20548;-51
2023/05/10 00:29:17;;;;;;;8.63;4.93;;;11.10;99.90;;;;;;5050143;28;20556;-51
2023/05/10 00:31:44;;;;;;;14.50;5.10;;;11.10;99.90;;;;;;5046818;28;20524;-50
2023/05/10 00:34:11;;;;;;;5.83;5.23;;;11.00;99.90;;;;;;5044969;28;20560;-50
2023/05/10 00:36:38;;;;;;;6.47;4.77;;;11.00;99.90;;;;;;5051633;28;20449;-50
2023/05/10 00:39:05;;;;;;;6.60;4.97;;;11.00;99.90;;;;;;5050961;28;20508;-50
2023/05/10 00:41:32;;;;;;;8.40;4.90;;;11.00;99.90;;;;;;5050944;28;20462;-50
2023/05/10 00:43:59;;;;;;;9.30;6.53;;;11.00;99.90;;;;;;5048694;28;20468;-50
2023/05/10 00:46:26;;;;;;;9.20;5.87;;;11.00;99.90;;;;;;5049130;28;20912;-50
2023/05/10 00:48:54;;;;;;;7.50;5.00;;;10.90;99.90;;;;;;5048225;28;20839;-50
2023/05/10 00:51:21;;;;;;;5.73;4.83;;;10.90;99.90;;;;;;5050529;28;20454;-51
2023/05/10 00:53:49;;;;;;;8.10;4.77;;;10.80;99.90;;;;;;5048505;28;20547;-50
2023/05/10 00:56:16;;;;;;;7.73;5.50;;;10.80;99.90;;;;;;5049596;28;20572;-51
2023/05/10 00:58:43;;;;;;;5.80;4.90;;;10.80;99.90;;;;;;5049155;28;20960;-51
2023/05/10 01:01:10;;;;;;;6.77;5.10;;;10.70;99.90;;;;;;5046791;28;21066;-51
2023/05/10 01:03:38;;;;;;;9.17;5.10;;;10.60;99.90;;;;;;5046794;28;20552;-50
2023/05/10 01:06:06;;;;;;;13.93;5.93;;;10.60;99.90;;;;;;5045181;28;20580;-50
2023/05/10 01:08:33;;;;;;;6.50;5.20;;;10.60;99.90;;;;;;5050256;28;20548;-51
2023/05/10 01:11:00;;;;;;;8.07;5.70;;;10.60;99.90;;;;;;5045890;28;20561;-51
2023/05/10 01:13:33;;;;;;;5.57;4.50;;;10.50;99.90;;;;;;5051046;28;20550;-51
2023/05/10 01:16:01;;;;;;;5.87;5.37;;;10.50;99.90;;;;;;5048462;28;20567;-51
2023/05/10 01:18:29;;;;;;;7.83;5.17;;;10.50;99.90;;;;;;5051389;28;20449;-50
2023/05/10 01:21:07;;;;;;;6.53;5.80;;;10.40;99.90;;;;;;5048679;28;20485;-51
2023/05/10 01:24:10;;;;;;;8.20;5.77;;;10.40;99.90;;;;;;5050431;28;20548;-51
2023/05/10 01:27:05;;;;;;;7.50;4.63;;;10.40;99.90;;;;;;5049971;28;20571;-50
2023/05/10 01:30:09;;;;;;;6.57;5.03;;;10.40;99.90;;;;;;5048319;28;20584;-50
2023/05/10 01:32:44;;;;;;;7.47;6.00;;;10.40;99.90;;;;;;5045174;28;21030;-51
2023/05/10 01:35:17;;;;;;;6.73;5.57;;;10.30;99.90;;;;;;5049965;28;20581;-52
2023/05/10 01:37:48;;;;;;;6.50;5.43;;;10.30;99.90;;;;;;5047082;28;20549;-51
2023/05/10 01:40:20;;;;;;;8.33;6.27;;;10.30;99.90;;;;;;5046849;28;20469;-50
2023/05/10 01:42:52;;;;;;;15.30;5.53;;;10.30;99.90;;;;;;5046705;28;20486;-51
2023/05/10 01:45:25;;;;;;;6.50;5.90;;;10.20;99.90;;;;;;5049849;28;20572;-52
2023/05/10 01:47:59;;;;;;;11.43;6.03;;;10.20;99.90;;;;;;5053551;28;20640;-50
2023/05/10 01:50:30;;;;;;;6.97;6.27;;;10.30;99.90;;;;;;5049355;28;20492;-51
2023/05/10 01:52:59;;;;;;;5.67;5.13;;;10.20;99.90;;;;;;5049173;28;20454;-50
2023/05/10 01:55:29;;;;;;;12.13;5.30;;;10.20;99.90;;;;;;5050094;28;20509;-51
2023/05/10 01:58:04;;;;;;;14.73;6.20;;;10.10;99.90;;;;;;5049931;28;20567;-51
2023/05/10 02:00:32;;;;;;;8.10;4.90;;;10.10;99.90;;;;;;5045275;28;21015;-51
2023/05/10 02:03:02;;;;;;;7.03;5.10;;;10.10;99.90;;;;;;5051975;28;20466;-51
2023/05/10 02:05:30;;;;;;;5.40;4.90;;;10.00;99.90;;;;;;5052963;28;20933;-52
2023/05/10 02:08:00;;;;;;;17.37;6.20;;;10.00;99.90;;;;;;5051865;28;20466;-52
2023/05/10 02:10:27;;;;;;;7.53;5.30;;;10.00;99.90;;;;;;5053015;28;20984;-51
2023/05/10 02:12:55;;;;;;;7.20;5.70;;;10.00;99.90;;;;;;5052694;28;20886;-50
2023/05/10 02:15:25;;;;;;;7.27;5.60;;;10.00;99.90;;;;;;5051525;28;20578;-51
2023/05/10 02:17:55;;;;;;;8.30;5.20;;;10.00;99.90;;;;;;5053080;28;20535;-52
2023/05/10 02:20:24;;;;;;;7.10;5.47;;;9.90;99.90;;;;;;5051274;28;20498;-51
2023/05/10 02:22:53;;;;;;;13.23;5.50;;;9.90;99.90;;;;;;5051462;28;20552;-50
2023/05/10 02:25:21;;;;;;;5.80;5.30;;;9.90;99.90;;;;;;5051633;28;20572;-50
2023/05/10 02:27:49;;;;;;;6.83;5.50;;;9.90;99.90;;;;;;5051385;28;20899;-51
2023/05/10 02:30:16;;;;;;;5.90;5.30;;;10.00;99.90;;;;;;5050312;28;20461;-50
2023/05/10 02:32:43;;;;;;;18.57;5.73;;;9.90;99.90;;;;;;5048810;28;20548;-50
2023/05/10 02:35:11;;;;;;;13.00;5.97;;;9.90;99.90;;;;;;5049096;28;20672;-50
2023/05/10 02:37:40;;;;;;;8.40;5.90;;;9.90;99.90;;;;;;5047263;28;20525;-50
2023/05/10 02:40:09;;;;;;;5.37;4.87;;;9.90;99.90;;;;;;5050577;28;20874;-52
2023/05/10 02:42:38;;;;;;;6.40;5.80;;;9.80;99.90;;;;;;5047220;28;20461;-50
2023/05/10 02:45:08;;;;;;;13.90;5.93;;;9.80;99.90;;;;;;5052285;28;20536;-51
2023/05/10 02:47:35;;;;;;;5.83;5.23;;;9.80;99.90;;;;;;5048552;28;20478;-51
2023/05/10 02:50:01;;;;;;;7.00;5.43;;;9.80;99.90;;;;;;5052612;28;20811;-51
2023/05/10 02:52:36;;;;;;;9.20;5.80;;;9.80;99.90;;;;;;5051442;28;20556;-51
2023/05/10 02:55:06;;;;;;;5.53;5.03;;;9.70;99.90;;;;;;5045115;28;20475;-52
2023/05/10 02:57:35;;;;;;;5.77;5.27;;;9.70;99.90;;;;;;5053254;28;20484;-50
2023/05/10 03:00:03;;;;;;;12.83;5.77;;;9.60;99.90;;;;;;5048092;28;20500;-52
2023/05/10 03:02:30;;;;;;;7.33;5.93;;;9.70;99.90;;;;;;5051662;28;20500;-51
2023/05/10 03:04:57;;;;;;;6.13;5.47;;;9.60;93.70;;;;;;5050189;28;20481;-50
2023/05/10 03:07:23;;;;;;;7.80;5.43;;;9.50;94.50;;;;;;5051082;28;20568;-50
2023/05/10 03:09:51;;;;;;;7.20;5.70;;;9.50;92.30;;;;;;5050653;28;20485;-50
2023/05/10 03:12:27;;;;;;;11.50;5.27;;;9.50;92.00;;;;;;5051418;28;20454;-50
2023/05/10 03:15:01;;;;;;;5.17;4.77;;;9.50;88.20;;;;;;5050087;28;20659;-51
2023/05/10 03:17:35;;;;;;;8.93;5.80;;;9.50;87.40;;;;;;5042981;28;20489;-50
2023/05/10 03:20:07;;;;;;;5.40;4.70;;;9.50;86.70;;;;;;5045370;28;20898;-51
2023/05/10 03:22:38;;;;;;;6.90;6.20;;;9.50;85.70;;;;;;5046753;28;21169;-51
2023/05/10 03:25:08;;;;;;;6.50;5.63;;;9.40;86.30;;;;;;5046915;28;20528;-51
2023/05/10 03:27:39;;;;;;;5.53;4.90;;;9.40;82.90;;;;;;5047799;28;20576;-50
2023/05/10 03:30:09;;;;;;;9.07;4.57;;;9.40;84.30;;;;;;5045129;28;20585;-51
2023/05/10 03:32:36;;;;;;;6.60;5.17;;;9.50;83.10;;;;;;5052954;28;21241;-50
2023/05/10 03:35:06;;;;;;;8.63;5.20;;;9.50;88.50;;;;;;5049866;28;20827;-53
2023/05/10 03:37:33;;;;;;;5.50;4.97;;;9.60;86.70;;;;;;5052796;28;20465;-54
2023/05/10 03:40:00;;;;;;;7.23;4.60;;;9.60;93.00;;;;;;5052046;28;20500;-50
2023/05/10 03:42:26;;;;;;;12.50;4.93;;;9.60;92.10;;;;;;5050455;28;20500;-50
2023/05/10 03:44:54;;;;;;;10.90;5.00;;;9.70;88.30;;;;;;5045656;28;20561;-50
2023/05/10 03:47:21;;;;;;;6.37;5.73;;;9.60;92.30;;;;;;5074219;22;20500;-53
2023/05/10 03:49:47;;;;;;;5.53;5.13;;;9.70;97.70;;;;;;5063214;28;20554;-51
2023/05/10 03:52:15;;;;;;;5.90;4.73;;;9.60;96.40;;;;;;5068033;28;20463;-51
2023/05/10 03:54:41;;;;;;;5.57;4.83;;;9.60;94.30;;;;;;5068816;28;20462;-52
2023/05/10 03:57:09;;;;;;;6.20;4.40;;;9.60;92.60;;;;;;5065675;28;20572;-54
2023/05/10 03:59:36;;;;;;;7.47;5.43;;;9.60;92.50;;;;;;5063579;28;21016;-53
2023/05/10 04:02:03;;;;;;;7.73;5.17;;;9.60;90.90;;;;;;5068457;28;20468;-51
2023/05/10 04:04:30;;;;;;;14.70;4.77;;;9.60;83.90;;;;;;5065715;28;20496;-54
2023/05/10 04:06:56;;;;;;;10.60;4.80;;;9.70;92.30;;;;;;5067716;28;20583;-52
2023/05/10 04:09:23;;;;;;;6.67;4.70;;;9.70;95.20;;;;;;5069220;28;20483;-53
2023/05/10 04:11:49;;;;;;;6.57;5.23;;;9.80;92.90;;;;;;5068159;28;20909;-52
2023/05/10 04:14:17;;;;;;;5.07;4.63;;;9.80;99.90;;;;;;5066140;28;20506;-54
2023/05/10 04:16:43;;;;;;;7.60;5.00;;;9.80;99.90;;;;;;5064536;28;20571;-52
2023/05/10 04:19:11;;;;;;;8.47;4.40;;;9.90;93.80;;;;;;5064716;28;21400;-52
2023/05/10 04:21:38;;;;;;;11.53;5.67;;;10.00;98.70;;;;;;5067034;28;20461;-52
2023/05/10 04:24:05;;;;;;;5.10;4.63;;;10.00;99.90;;;;;;5067086;28;20547;-53
2023/05/10 04:26:32;;;;;;;7.83;5.00;;;10.10;99.90;;;;;;5067518;28;20566;-52
2023/05/10 04:28:58;;;;;;;4.90;4.50;;;10.10;99.90;;;;;;5069127;28;20464;-53
2023/05/10 04:31:25;;;;;;;12.53;4.97;;;10.20;99.90;;;;;;5066292;28;20468;-52
2023/05/10 04:33:52;;;;;;;7.10;4.93;;;10.20;99.90;;;;;;5067363;28;20460;-52
2023/05/10 04:36:20;;;;;;;5.53;4.50;;;10.20;99.90;;;;;;5068299;28;20570;-52
2023/05/10 04:38:46;;;;;;;7.20;4.60;;;10.40;99.90;;;;;;5067936;28;20902;-53
2023/05/10 04:41:13;;;;;;;4.63;4.27;;;10.40;99.90;;;;;;5061153;28;21037;-53
2023/05/10 04:43:40;;;;;;;5.90;4.93;;;10.50;99.90;;;;;;5063928;28;20504;-53
2023/05/10 04:46:06;;;;;;;5.50;4.83;;;10.50;99.90;;;;;;5063998;28;20579;-52
2023/05/10 04:48:33;;;;;;;4.53;4.03;;;10.60;99.90;;;;;;5066832;28;20510;-52
2023/05/10 04:50:59;;;;;;;5.23;4.17;;;10.70;99.90;;;;;;5065779;28;20545;-53
2023/05/10 04:53:27;;;;;;;8.30;4.43;;;10.70;99.90;;;;;;5067164;28;20511;-51
2023/05/10 04:55:54;;;;;;;10.30;4.63;;;10.80;99.90;;;;;;5067949;28;20916;-53
2023/05/10 04:58:21;;;;;;;8.80;4.33;;;10.90;99.90;;;;;;5064760;28;20462;-53
2023/05/10 05:00:47;;;;;;;18.13;4.27;;;11.00;99.90;;;;;;5066095;28;20463;-53
2023/05/10 05:03:14;;;;;;;6.50;4.50;;;11.00;99.90;;;;;;5068867;28;20538;-52
2023/05/10 05:05:41;;;;;;;6.53;4.50;;;11.10;99.90;;;;;;5065925;28;20564;-53
2023/05/10 05:08:07;;;;;;;9.40;4.60;;;11.20;99.90;;;;;;5065274;28;21085;-52
2023/05/10 05:10:35;;;;;;;4.50;3.87;;;11.30;99.90;;;;;;5065105;28;20917;-53
2023/05/10 05:13:02;;;;;;;13.53;5.00;;;11.30;99.90;;;;;;5059398;28;20463;-51
2023/05/10 05:15:29;;;;;;;4.83;4.40;;;11.40;99.90;;;;;;5062819;28;20502;-53
2023/05/10 05:17:56;;;;;;;5.10;4.70;;;11.50;99.90;;;;;;5063460;28;20470;-52
2023/05/10 05:20:23;;;;;;;15.70;5.40;;;11.60;99.90;;;;;;5071779;28;20946;-53
2023/05/10 05:22:50;;;;;;;10.13;4.43;;;11.60;99.90;;;;;;5072435;28;20827;-52
2023/05/10 05:25:17;;;;;;;10.30;4.37;;;11.70;99.90;;;;;;5068180;28;20464;-52
2023/05/10 05:27:44;;;;;;;7.60;4.10;;;11.70;99.90;;;;;;5065263;28;20757;-52
2023/05/10 05:30:12;;;;;;;7.80;4.00;;;11.80;99.90;;;;;;5072804;28;20852;-52
2023/05/10 05:32:38;;;;;;;4.93;4.30;;;11.80;99.90;;;;;;5068358;28;20473;-54
2023/05/10 05:35:06;;;;;;;5.27;4.13;;;11.90;99.90;;;;;;5063905;28;20503;-53
2023/05/10 05:37:32;;;;;;;8.83;4.23;;;12.00;99.90;;;;;;5067119;28;20509;-51
2023/05/10 05:40:00;;;;;;;5.70;3.90;;;12.10;99.90;;;;;;5068510;28;20484;-52
2023/05/10 05:42:27;;;;;;;6.10;3.87;;;12.20;99.90;;;;;;5068355;28;20551;-53
2023/05/10 05:44:55;;;;;;;4.70;3.60;;;12.40;99.90;;;;;;5070884;28;20556;-51
2023/05/10 05:47:21;;;;;;;4.30;3.07;;;12.40;99.90;;;;;;5070757;28;20934;-54
2023/05/10 05:49:48;;;;;;;4.47;4.07;;;12.50;99.90;;;;;;5070583;28;20596;-53
2023/05/10 05:52:15;;;;;;;4.53;4.17;;;12.70;99.90;;;;;;5067689;28;20484;-54
2023/05/10 05:54:41;;;;;;;3.70;3.50;;;12.60;99.90;;;;;;5063894;28;20556;-52
2023/05/10 05:57:08;;;;;;;18.63;3.77;;;12.70;99.90;;;;;;5072047;28;20507;-52
2023/05/10 05:59:35;;;;;;;5.80;3.50;;;12.80;99.90;;;;;;5067405;28;20460;-52
2023/05/10 06:02:03;;;;;;;6.80;2.90;;;12.90;99.90;;;;;;5068162;28;20502;-53
2023/05/10 06:04:29;;;;;;;3.67;3.47;;;13.00;99.90;;;;;;5069257;28;22307;-52
2023/05/10 06:06:56;;;;;;;3.60;3.30;;;13.10;99.90;;;;;;5070070;28;20490;-53
2023/05/10 06:09:24;;;;;;;3.53;3.20;;;13.10;99.90;;;;;;5072196;28;20901;-51
2023/05/10 06:11:50;;;;;;;5.23;3.07;;;13.20;99.90;;;;;;5069782;28;20463;-51
2023/05/10 06:14:17;;;;;;;16.03;3.77;;;13.40;99.90;;;;;;5069944;28;20503;-51
2023/05/10 06:16:43;;;;;;;5.33;3.30;;;13.40;99.90;;;;;;5073604;28;20511;-52
2023/05/10 06:19:11;;;;;;;5.63;3.40;;;13.50;99.90;;;;;;5070329;28;20539;-53
2023/05/10 06:21:38;;;;;;;3.40;2.90;;;13.60;99.90;;;;;;5070078;28;20538;-55
2023/05/10 06:24:06;;;;;;;6.20;3.70;;;13.70;99.90;;;;;;5071632;28;20501;-53
2023/05/10 06:26:33;;;;;;;9.50;3.60;;;13.70;99.90;;;;;;5067628;28;20571;-53
2023/05/10 06:28:59;;;;;;;8.17;3.07;;;13.90;99.90;;;;;;5071222;28;20590;-55
2023/05/10 06:31:26;;;;;;;3.27;3.07;;;13.90;99.90;;;;;;5072884;28;20535;-53
2023/05/10 06:33:53;;;;;;;6.03;3.20;;;14.10;99.90;;;;;;5068450;28;20911;-55
2023/05/10 06:36:21;;;;;;;6.47;3.40;;;14.10;99.90;;;;;;5065490;28;20539;-54
2023/05/10 06:38:48;;;;;;;4.30;2.90;;;14.30;99.90;;;;;;5066918;28;20485;-54
2023/05/10 06:41:14;;;;;;;9.23;3.77;;;14.40;99.90;;;;;;5063840;28;20846;-56
2023/05/10 06:43:43;;;;;;;6.50;3.20;;;14.40;99.90;;;;;;5071939;28;20948;-53
2023/05/10 06:46:09;;;;;;;5.83;3.00;;;14.50;99.90;;;;;;5072739;28;20494;-56
2023/05/10 06:48:36;;;;;;;6.67;2.73;;;14.70;99.90;;;;;;5070486;28;20563;-55
2023/05/10 06:51:02;;;;;;;8.93;3.20;;;14.70;99.90;;;;;;5070285;28;20551;-56
2023/05/10 06:53:30;;;;;;;5.67;2.97;;;14.80;99.90;;;;;;5067636;28;21049;-53
2023/05/10 06:55:57;;;;;;;6.83;2.90;;;15.10;99.90;;;;;;5073904;28;20506;-54
2023/05/10 06:58:23;;;;;;;16.33;3.17;;;15.30;99.90;;;;;;5068272;28;20566;-54
2023/05/10 07:00:50;;;;;;;8.23;3.03;;;15.20;99.90;;;;;;5066643;28;21330;-54
2023/05/10 07:03:16;;;;;;;5.60;3.40;;;15.30;99.90;;;;;;5066401;28;20537;-54
2023/05/10 07:05:43;;;;;;;7.80;3.30;;;15.30;99.90;;;;;;5068063;28;21046;-53
2023/05/10 07:08:10;;;;;;;3.37;2.93;;;15.40;99.90;;;;;;5067170;28;20535;-53
2023/05/10 07:10:38;;;;;;;2.90;2.70;;;15.60;99.90;;;;;;5067589;28;20541;-54
2023/05/10 07:13:04;;;;;;;4.13;3.00;;;15.80;99.90;;;;;;5064091;28;20950;-55
2023/05/10 07:15:31;;;;;;;4.23;2.83;;;15.60;99.90;;;;;;5066042;28;20464;-53
2023/05/10 07:17:57;;;;;;;3.87;2.83;;;15.50;99.90;;;;;;5066593;28;20492;-55
2023/05/10 07:20:24;;;;;;;4.30;3.00;;;15.50;99.90;;;;;;5068094;28;20551;-56
2023/05/10 07:22:50;;;;;;;3.50;3.20;;;15.60;99.90;;;;;;5068482;28;20558;-54
2023/05/10 07:25:17;;;;;;;5.63;3.23;;;15.70;99.90;;;;;;5067025;28;20459;-54
2023/05/10 07:27:45;;;;;;;4.63;4.17;;;15.70;99.90;;;;;;5066845;28;20494;-54
2023/05/10 07:30:12;;;;;;;13.67;2.43;;;15.90;99.90;;;;;;5068081;28;20496;-56
2023/05/10 07:32:41;;;;;;;5.23;2.57;;;16.10;99.90;;;;;;5067060;28;20539;-54
2023/05/10 07:35:09;;;;;;;8.87;3.20;;;16.30;99.90;;;;;;5067105;28;20948;-53
2023/05/10 07:37:35;;;;;;;4.43;2.83;;;16.10;99.90;;;;;;5070235;28;20465;-54
2023/05/10 07:40:02;;;;;;;3.67;2.77;;;16.00;99.90;;;;;;5065523;28;20456;-55
2023/05/10 07:42:28;;;;;;;9.70;2.80;;;16.00;99.90;;;;;;5067055;28;20846;-53
2023/05/10 07:44:56;;;;;;;5.93;2.90;;;16.10;99.90;;;;;;5068576;28;20521;-55
2023/05/10 07:47:23;;;;;;;2.80;2.57;;;16.10;99.90;;;;;;5070134;28;20586;-52
2023/05/10 07:49:49;;;;;;;7.63;3.00;;;16.10;99.90;;;;;;5070001;28;20510;-53
2023/05/10 07:52:16;;;;;;;4.77;2.83;;;16.20;99.90;;;;;;5064403;28;20559;-52
2023/05/10 07:54:42;;;;;;;4.17;2.57;;;16.30;99.90;;;;;;5063529;28;20528;-52
2023/05/10 07:57:09;;;;;;;6.00;2.83;;;16.40;99.90;;;;;;5071408;28;20489;-52
2023/05/10 07:59:36;;;;;;;4.83;2.83;;;16.60;99.90;;;;;;5071478;28;20488;-53
2023/05/10 08:02:04;;;;;;;9.57;3.47;;;16.40;99.90;;;;;;5069041;28;20524;-51
2023/05/10 08:04:30;;;;;;;6.27;3.13;;;16.50;99.90;;;;;;5070119;28;21025;-51
2023/05/10 08:06:57;;;;;;;9.27;2.93;;;16.60;99.90;;;;;;5071303;28;20491;-51
2023/05/10 08:09:23;;;;;;;3.27;2.47;;;16.80;99.90;;;;;;5063463;28;20546;-54
2023/05/10 08:11:50;;;;;;;5.50;2.43;;;16.70;99.90;;;;;;5065033;28;20499;-52
2023/05/10 08:14:17;;;;;;;4.27;3.10;;;16.90;99.90;;;;;;5070387;28;20999;-51
2023/05/10 08:16:43;;;;;;;3.50;2.67;;;17.10;99.90;;;;;;5071849;28;20500;-51
2023/05/10 08:19:11;;;;;;;5.20;3.27;;;17.10;99.90;;;;;;5070477;28;20496;-53
2023/05/10 08:21:38;;;;;;;5.70;3.23;;;17.00;99.90;;;;;;5071582;28;20889;-51
2023/05/10 08:24:05;;;;;;;4.93;2.63;;;17.30;99.90;;;;;;5070926;28;20447;-51
2023/05/10 08:26:34;;;;;;;9.50;2.40;;;17.30;99.90;;;;;;5059774;28;21068;-51
2023/05/10 08:29:01;;;;;;;10.00;3.00;;;17.50;99.90;;;;;;5068360;28;20542;-50
2023/05/10 08:31:27;;;;;;;2.70;2.50;;;17.40;99.90;;;;;;5070396;28;20498;-50
2023/05/10 08:33:54;;;;;;;8.87;2.80;;;17.60;99.90;;;;;;5069339;28;20494;-52
2023/05/10 08:36:24;;;;;;;5.40;3.10;;;17.70;99.90;;;;;;5068709;28;20482;-51
2023/05/10 08:38:51;;;;;;;8.10;3.70;;;17.70;99.90;;;;;;5070620;28;20551;-51
2023/05/10 08:41:20;;;;;;;3.77;2.90;;;17.70;99.90;;;;;;5064587;28;20463;-53
2023/05/10 08:43:47;;;;;;;2.87;2.67;;;18.20;99.90;;;;;;5071087;28;20816;-54
2023/05/10 08:46:18;;;;;;;3.70;2.80;;;18.40;99.90;;;;;;5069973;28;20510;-53
2023/05/10 08:48:45;;;;;;;3.57;2.50;;;18.30;99.90;;;;;;5064388;28;20481;-55
2023/05/10 08:51:16;;;;;;;3.10;2.80;;;18.70;99.90;;;;;;5070423;28;20519;-54
2023/05/10 08:53:45;;;;;;;5.43;2.80;;;18.50;99.90;;;;;;5072316;28;20453;-54
2023/05/10 08:56:11;;;;;;;6.20;3.30;;;18.80;99.90;;;;;;5070807;28;20589;-55
2023/05/10 08:58:38;;;;;;;6.90;3.47;;;19.20;99.90;;;;;;5066647;28;20540;-56
2023/05/10 09:01:06;;;;;;;4.93;3.00;;;19.50;99.90;;;;;;5073695;28;20891;-54
2023/05/10 09:03:33;;;;;;;3.13;2.93;;;20.00;99.90;;;;;;5072017;28;20464;-54
2023/05/10 09:05:59;;;;;;;3.17;2.80;;;20.50;99.90;;;;;;5073564;28;20491;-54
2023/05/10 09:08:26;;;;;;;3.07;2.83;;;20.70;99.90;;;;;;5071380;28;20480;-54
2023/05/10 09:10:56;;;;;;;3.20;2.80;;;20.30;99.90;;;;;;5074710;28;20507;-54
2023/05/10 09:13:23;;;;;;;3.20;2.70;;;21.70;99.90;;;;;;5068533;28;20467;-55
2023/05/10 09:15:51;;;;;;;18.67;4.20;;;22.40;99.90;;;;;;5073603;28;20504;-55
2023/05/10 09:18:18;;;;;;;3.23;2.77;;;22.00;99.90;;;;;;5070686;28;20544;-56
2023/05/10 09:20:44;;;;;;;8.30;2.63;;;22.30;99.90;;;;;;5074785;28;20438;-52
2023/05/10 09:23:11;;;;;;;4.30;3.10;;;22.20;99.90;;;;;;5074207;28;20484;-52
2023/05/10 09:25:38;;;;;;;2.93;2.73;;;21.60;99.90;;;;;;5074631;28;20472;-51
2023/05/10 09:28:09;;;;;;;3.10;2.80;;;22.10;99.90;;;;;;5074921;28;20525;-51
2023/05/10 09:30:36;;;;;;;2.80;2.33;;;21.80;99.90;;;;;;5073965;28;20463;-51
2023/05/10 09:33:03;;;;;;;4.13;2.20;;;21.50;99.90;;;;;;5073811;28;20535;-51
2023/05/10 09:35:33;;;;;;;4.80;2.37;;;21.90;99.90;;;;;;5074348;28;20529;-51
2023/05/10 09:38:04;;;;;;;4.20;2.93;;;21.90;99.90;;;;;;5074009;28;20480;-51
2023/05/10 09:40:31;;;;;;;2.27;2.17;;;22.30;99.90;;;;;;5073933;28;20480;-51
2023/05/10 09:42:58;;;;;;;6.30;2.73;;;22.70;99.90;;;;;;5074493;28;20890;-50
2023/05/10 09:45:31;;;;;;;3.23;2.43;;;22.30;99.90;;;;;;5073441;28;20540;-50
2023/05/10 09:47:59;;;;;;;3.13;2.60;;;21.70;99.90;;;;;;5072736;28;21040;-50
2023/05/10 09:50:27;;;;;;;7.13;2.40;;;21.70;99.90;;;;;;5073662;28;20465;-54
2023/05/10 09:52:55;;;;;;;5.90;2.43;;;22.80;99.90;;;;;;5073444;28;20489;-54
2023/05/10 09:55:26;;;;;;;5.80;3.20;;;21.30;99.90;;;;;;5071499;28;20947;-54
2023/05/10 09:58:00;;;;;;;2.83;2.37;;;23.00;99.90;;;;;;5071304;28;20473;-55
2023/05/10 10:00:29;;;;;;;4.30;2.30;;;23.60;99.90;;;;;;5068023;28;20467;-54
2023/05/10 10:02:57;;;;;;;4.30;1.97;;;24.00;99.90;;;;;;5072768;28;20826;-55
2023/05/10 10:05:29;;;;;;;2.60;2.50;;;24.10;99.90;;;;;;5071441;28;21277;-50
2023/05/10 10:07:57;;;;;;;4.83;2.33;;;24.20;99.90;;;;;;5065078;28;20568;-51
2023/05/10 10:10:24;;;;;;;6.73;2.40;;;23.50;99.90;;;;;;5061965;28;20550;-51
2023/05/10 10:12:51;;;;;;;4.10;2.97;;;23.60;99.90;;;;;;5072287;28;20488;-50
2023/05/10 10:15:18;;;;;;;7.27;2.50;;;23.70;99.90;;;;;;5072201;28;20497;-51
2023/05/10 10:17:47;;;;;;;9.10;2.87;;;24.00;99.90;;;;;;5071695;28;20950;-51
2023/05/10 10:20:14;;;;;;;3.33;2.40;;;24.30;99.90;;;;;;5073876;28;20487;-50
2023/05/10 10:22:40;;;;;;;3.27;3.00;;;23.70;99.90;;;;;;5070687;28;20556;-50
2023/05/10 10:25:08;;;;;;;6.40;3.17;;;24.10;99.90;;;;;;5058862;28;20473;-51
2023/05/10 10:27:44;;;;;;;3.93;3.17;;;24.30;99.90;;;;;;5072774;28;20477;-51
2023/05/10 10:30:19;;;;;;;2.80;2.60;;;23.60;99.90;;;;;;5071602;28;20888;-50
2023/05/10 10:33:28;;;;;;;2.70;2.20;;;23.40;99.90;;;;;;5068089;28;20492;-51
2023/05/10 10:35:56;;;;;;;5.27;2.67;;;24.10;99.90;;;;;;5060046;28;20567;-50
2023/05/10 10:38:23;;;;;;;3.37;2.70;;;24.30;99.90;;;;;;5071246;28;20536;-51
2023/05/10 10:41:03;;;;;;;2.73;2.63;;;23.30;99.90;;;;;;5064431;28;20457;-50
2023/05/10 10:43:30;;;;;;;2.47;2.27;;;24.20;99.90;;;;;;5067170;28;20818;-51
2023/05/10 10:46:16;;;;;;;6.87;2.43;;;24.30;99.90;;;;;;5071906;28;20542;-51
2023/05/10 10:48:51;;;;;;;3.43;2.63;;;24.70;99.90;;;;;;5069931;28;20492;-50
2023/05/10 10:51:18;;;;;;;2.83;2.63;;;24.70;99.90;;;;;;5072817;28;20449;-51
2023/05/10 10:53:44;;;;;;;7.47;2.80;;;24.20;99.90;;;;;;5076590;28;20492;-50
2023/05/10 10:56:13;;;;;;;14.43;2.60;;;22.50;99.90;;;;;;5069291;28;20489;-51
2023/05/10 10:58:40;;;;;;;3.57;3.10;;;23.40;99.90;;;;;;5072979;28;20480;-50
2023/05/10 11:01:12;;;;;;;9.63;2.43;;;24.60;99.90;;;;;;5073370;28;20530;-51
2023/05/10 11:03:39;;;;;;;4.40;2.47;;;25.30;99.90;;;;;;5071896;28;20492;-51
2023/05/10 11:06:07;;;;;;;2.10;2.00;;;26.10;99.90;;;;;;5066345;28;20898;-51
2023/05/10 11:08:41;;;;;;;2.40;2.20;;;26.60;99.90;;;;;;5072702;28;20481;-51
2023/05/10 11:11:08;;;;;;;2.53;2.33;;;26.70;99.90;;;;;;5068050;28;20930;-51
2023/05/10 11:13:39;;;;;;;6.50;2.30;;;26.30;96.00;;;;;;5071846;28;20977;-51
2023/05/10 11:16:17;;;;;;;2.83;2.43;;;26.10;99.90;;;;;;5063325;28;20485;-51
2023/05/10 11:19:09;;;;;;;13.23;3.10;;;25.00;98.80;;;;;;5071456;28;20457;-51
2023/05/10 11:21:47;;;;;;;4.00;2.37;;;24.90;99.90;;;;;;5046041;28;20496;-51
2023/05/10 11:24:15;;;;;;;3.27;2.23;;;25.60;99.90;;;;;;5065503;28;20465;-52
2023/05/10 11:26:42;;;;;;;12.40;2.20;;;25.20;99.90;;;;;;5069722;28;21075;-51
2023/05/10 11:29:09;;;;;;;1.83;1.73;;;25.00;88.20;;;;;;5071761;28;20487;-51
2023/05/10 11:31:42;;;;;;;3.07;2.10;;;25.30;96.30;;;;;;5059904;28;20466;-50
2023/05/10 11:34:08;;;;;;;4.03;2.17;;;24.80;91.70;;;;;;5065707;28;21010;-51
2023/05/10 11:36:43;;;;;;;8.57;2.70;;;24.70;99.90;;;;;;5107427;27;20549;-50
2023/05/10 11:39:11;;;;;;;2.43;2.33;;;24.50;99.90;;;;;;5091516;28;20989;-51
2023/05/10 11:41:37;;;;;;;6.00;2.10;;;24.30;99.90;;;;;;5083426;28;20507;-51
2023/05/10 11:44:04;;;;;;;3.47;1.97;;;24.70;99.90;;;;;;5087535;28;20483;-51
2023/05/10 11:46:31;;;;;;;8.03;2.43;;;24.70;99.90;;;;;;5093217;28;20514;-50
2023/05/10 11:49:01;;;;;;;6.37;2.47;;;24.30;99.90;;;;;;5089516;28;20457;-51
2023/05/10 11:51:28;;;;;;;2.40;2.27;;;24.70;99.90;;;;;;5084063;28;20460;-51
2023/05/10 11:53:57;;;;;;;3.53;1.97;;;24.70;99.90;;;;;;5086339;28;20551;-51
2023/05/10 11:56:25;;;;;;;5.13;2.30;;;24.90;99.90;;;;;;5092930;28;20566;-50
2023/05/10 11:58:57;;;;;;;4.07;2.20;;;25.00;99.90;;;;;;5088988;28;20460;-50
2023/05/10 12:01:24;;;;;;;10.10;2.10;;;24.10;99.90;;;;;;5079607;28;20914;-50
2023/05/10 12:03:52;;;;;;;2.47;2.27;;;25.20;99.90;;;;;;5085733;28;20538;-50
2023/05/10 12:06:19;;;;;;;4.13;2.20;;;24.90;99.90;;;;;;5088713;28;20491;-50
2023/05/10 12:08:47;;;;;;;2.00;1.87;;;24.70;99.90;;;;;;5091726;28;21022;-51
2023/05/10 12:11:15;;;;;;;8.30;2.40;;;23.50;99.90;;;;;;5090295;28;20542;-50
2023/05/10 12:13:46;;;;;;;2.73;2.50;;;24.70;99.90;;;;;;5087951;28;20464;-51
2023/05/10 12:16:17;;;;;;;32.27;2.43;;;24.90;99.90;;;;;;5084768;28;20887;-51
2023/05/10 12:18:43;;;;;;;3.37;2.50;;;25.30;99.90;;;;;;5084945;28;20838;-50
2023/05/10 12:21:11;;;;;;;4.83;2.20;;;24.50;99.90;;;;;;5082361;28;20993;-51
2023/05/10 12:23:38;;;;;;;2.30;2.17;;;25.10;99.90;;;;;;5098795;28;20841;-51
2023/05/10 12:26:05;;;;;;;2.37;2.27;;;24.90;99.90;;;;;;5083699;28;20480;-51
2023/05/10 12:28:34;;;;;;;2.40;2.20;;;25.30;99.90;;;;;;5087858;28;20469;-51
2023/05/10 12:31:01;;;;;;;2.00;1.90;;;25.70;99.90;;;;;;5088470;28;20774;-51
2023/05/10 12:33:27;;;;;;;1.97;1.87;;;25.80;99.90;;;;;;5084913;28;20536;-50
2023/05/10 12:35:56;;;;;;;4.20;2.57;;;25.50;99.90;;;;;;5081207;28;20671;-51
2023/05/10 12:38:29;;;;;;;3.17;2.47;;;25.90;99.90;;;;;;5086235;28;20484;-51
2023/05/10 12:40:55;;;;;;;4.53;2.30;;;25.80;87.80;;;;;;5089840;28;20463;-50
2023/05/10 12:43:22;;;;;;;3.63;2.43;;;25.30;99.90;;;;;;5099055;28;20544;-51
2023/05/10 12:45:50;;;;;;;5.60;2.07;;;25.10;99.90;;;;;;5081178;28;20508;-50
2023/05/10 12:48:16;;;;;;;7.73;2.37;;;25.80;99.90;;;;;;5085042;28;20552;-51
2023/05/10 12:50:43;;;;;;;13.00;2.47;;;25.80;99.90;;;;;;5066444;28;20500;-50
2023/05/10 12:53:10;;;;;;;11.33;3.00;;;25.00;99.90;;;;;;5072458;28;20533;-51
2023/05/10 12:55:36;;;;;;;11.50;2.20;;;25.30;99.90;;;;;;5079283;28;20507;-51